sensor_id;sensor_type;location;lat;lon;timestamp;pressure;altitude;pressure_sealevel;temperature;humidity
29461;BME280;16428;47.836;35.106;2023-10-31T00:01:58;101734.44;;;11.58;100.00
29461;BME280;16428;47.836;35.106;2023-10-31T00:04:25;101727.31;;;11.75;100.00
29461;BME280;16428;47.836;35.106;2023-10-31T00:06:52;101735.53;;;11.73;100.00
29461;BME280;16428;47.836;35.106;2023-10-31T00:09:19;101730.06;;;11.83;100.00
29461;BME280;16428;47.836;35.106;2023-10-31T00:11:46;101725.63;;;12.08;100.00
29461;BME280;16428;47.836;35.106;2023-10-31T00:14:13;101718.84;;;11.95;100.00
29461;BME280;16428;47.836;35.106;2023-10-31T00:16:58;101716.91;;;11.80;100.00
29461;BME280;16428;47.836;35.106;2023-10-31T00:19:25;101715.16;;;11.96;100.00
29461;BME280;16428;47.836;35.106;2023-10-31T00:21:52;101707.75;;;11.90;100.00
29461;BME280;16428;47.836;35.106;2023-10-31T00:24:19;101706.53;;;11.85;100.00
29461;BME280;16428;47.836;35.106;2023-10-31T00:26:46;101713.69;;;12.02;100.00
29461;BME280;16428;47.836;35.106;2023-10-31T00:29:13;101719.16;;;11.92;100.00
29461;BME280;16428;47.836;35.106;2023-10-31T00:31:41;101718.84;;;11.95;100.00
29461;BME280;16428;47.836;35.106;2023-10-31T00:34:08;101714.13;;;11.89;100.00
29461;BME280;16428;47.836;35.106;2023-10-31T00:36:36;101714.13;;;11.89;100.00
29461;BME280;16428;47.836;35.106;2023-10-31T00:39:03;101719.16;;;11.92;100.00
29461;BME280;16428;47.836;35.106;2023-10-31T00:41:30;101704.53;;;11.87;100.00
29461;BME280;16428;47.836;35.106;2023-10-31T00:43:57;101711.84;;;12.11;100.00
29461;BME280;16428;47.836;35.106;2023-10-31T00:46:24;101713.69;;;12.10;100.00
29461;BME280;16428;47.836;35.106;2023-10-31T00:48:51;101712.00;;;12.09;100.00
29461;BME280;16428;47.836;35.106;2023-10-31T00:51:18;101709.13;;;12.03;100.00
29461;BME280;16428;47.836;35.106;2023-10-31T00:53:45;101709.19;;;12.19;100.00
29461;BME280;16428;47.836;35.106;2023-10-31T00:56:12;101712.47;;;11.96;100.00
29461;BME280;16428;47.836;35.106;2023-10-31T00:58:39;101712.50;;;12.05;100.00
29461;BME280;16428;47.836;35.106;2023-10-31T01:01:06;101707.50;;;12.18;100.00
29461;BME280;16428;47.836;35.106;2023-10-31T01:03:33;101715.53;;;12.10;100.00
29461;BME280;16428;47.836;35.106;2023-10-31T01:06:01;101722.53;;;11.94;100.00
29461;BME280;16428;47.836;35.106;2023-10-31T01:08:28;101720.91;;;12.02;100.00
29461;BME280;16428;47.836;35.106;2023-10-31T01:10:56;101714.06;;;11.81;100.00
29461;BME280;16428;47.836;35.106;2023-10-31T01:13:23;101716.06;;;11.79;100.00
29461;BME280;16428;47.836;35.106;2023-10-31T01:15:50;101722.53;;;11.94;100.00
29461;BME280;16428;47.836;35.106;2023-10-31T01:18:17;101723.53;;;11.85;100.00
29461;BME280;16428;47.836;35.106;2023-10-31T01:20:44;101719.16;;;11.92;100.00
29461;BME280;16428;47.836;35.106;2023-10-31T01:23:11;101712.53;;;11.79;100.00
29461;BME280;16428;47.836;35.106;2023-10-31T01:25:39;101722.47;;;11.78;100.00
29461;BME280;16428;47.836;35.106;2023-10-31T01:28:06;101722.78;;;11.75;100.00
29461;BME280;16428;47.836;35.106;2023-10-31T01:30:33;101724.53;;;11.84;100.00
29461;BME280;16428;47.836;35.106;2023-10-31T01:33:00;101722.53;;;11.94;100.00
29461;BME280;16428;47.836;35.106;2023-10-31T01:35:27;101725.06;;;11.96;100.00
29461;BME280;16428;47.836;35.106;2023-10-31T01:37:54;101718.63;;;11.81;100.00
29461;BME280;16428;47.836;35.106;2023-10-31T01:40:21;101723.53;;;11.85;100.00
29461;BME280;16428;47.836;35.106;2023-10-31T01:42:48;101720.16;;;11.83;100.00
29461;BME280;16428;47.836;35.106;2023-10-31T01:45:16;101709.25;;;11.67;100.00
29461;BME280;16428;47.836;35.106;2023-10-31T01:47:46;101717.13;;;11.86;100.00
29461;BME280;16428;47.836;35.106;2023-10-31T01:50:16;101718.72;;;11.71;100.00
29461;BME280;16428;47.836;35.106;2023-10-31T01:52:44;101711.91;;;11.59;100.00
29461;BME280;16428;47.836;35.106;2023-10-31T01:55:12;101709.56;;;11.64;100.00
29461;BME280;16428;47.836;35.106;2023-10-31T01:57:40;101702.78;;;11.78;100.00
29461;BME280;16428;47.836;35.106;2023-10-31T02:00:07;101703.78;;;11.51;100.00
29461;BME280;16428;47.836;35.106;2023-10-31T02:02:37;101699.13;;;11.61;100.00
29461;BME280;16428;47.836;35.106;2023-10-31T02:05:05;101692.78;;;11.70;100.00
29461;BME280;16428;47.836;35.106;2023-10-31T02:07:32;101697.50;;;11.68;100.00
29461;BME280;16428;47.836;35.106;2023-10-31T02:09:59;101692.31;;;11.49;100.00
29461;BME280;16428;47.836;35.106;2023-10-31T02:12:36;101698.63;;;11.57;100.00
29461;BME280;16428;47.836;35.106;2023-10-31T02:15:05;101702.22;;;11.40;100.00
29461;BME280;16428;47.836;35.106;2023-10-31T02:17:32;101705.25;;;11.19;100.00
29461;BME280;16428;47.836;35.106;2023-10-31T02:19:59;101698.81;;;11.38;100.00
29461;BME280;16428;47.836;35.106;2023-10-31T02:22:26;101695.66;;;11.43;100.00
29461;BME280;16428;47.836;35.106;2023-10-31T02:24:53;101696.19;;;11.20;100.00
29461;BME280;16428;47.836;35.106;2023-10-31T02:27:20;101693.63;;;11.19;100.00
29461;BME280;16428;47.836;35.106;2023-10-31T02:29:47;101684.50;;;11.30;100.00
29461;BME280;16428;47.836;35.106;2023-10-31T02:32:14;101689.53;;;11.33;100.00
29461;BME280;16428;47.836;35.106;2023-10-31T02:34:41;101676.34;;;11.47;100.00
29461;BME280;16428;47.836;35.106;2023-10-31T02:37:09;101689.53;;;11.33;100.00
29461;BME280;16428;47.836;35.106;2023-10-31T02:39:37;101688.84;;;11.31;100.00
29461;BME280;16428;47.836;35.106;2023-10-31T02:42:04;101691.53;;;11.31;100.00
29461;BME280;16428;47.836;35.106;2023-10-31T02:44:31;101683.84;;;11.36;100.00
29461;BME280;16428;47.836;35.106;2023-10-31T02:46:59;101686.94;;;11.49;100.00
29461;BME280;16428;47.836;35.106;2023-10-31T02:49:26;101693.41;;;11.64;100.00
29461;BME280;16428;47.836;35.106;2023-10-31T02:51:53;101698.47;;;11.59;100.00
29461;BME280;16428;47.836;35.106;2023-10-31T02:54:20;101705.03;;;11.64;100.00
29461;BME280;16428;47.836;35.106;2023-10-31T02:56:47;101710.47;;;11.47;100.00
29461;BME280;16428;47.836;35.106;2023-10-31T02:59:14;101697.78;;;11.57;100.00
29461;BME280;16428;47.836;35.106;2023-10-31T03:01:41;101700.41;;;11.49;100.00
29461;BME280;16428;47.836;35.106;2023-10-31T03:04:08;101696.09;;;11.56;100.00
29461;BME280;16428;47.836;35.106;2023-10-31T03:06:35;101701.47;;;11.56;100.00
29461;BME280;16428;47.836;35.106;2023-10-31T03:09:02;101696.28;;;11.62;100.00
29461;BME280;16428;47.836;35.106;2023-10-31T03:11:29;101689.94;;;11.46;100.00
29461;BME280;16428;47.836;35.106;2023-10-31T03:13:56;101693.56;;;11.54;100.00
29461;BME280;16428;47.836;35.106;2023-10-31T03:16:24;101687.31;;;11.54;100.00
29461;BME280;16428;47.836;35.106;2023-10-31T03:18:51;101688.53;;;11.34;100.00
29461;BME280;16428;47.836;35.106;2023-10-31T03:21:18;101680.03;;;11.46;100.00
29461;BME280;16428;47.836;35.106;2023-10-31T03:23:49;101686.38;;;11.37;100.00
29461;BME280;16428;47.836;35.106;2023-10-31T03:26:16;101675.16;;;11.42;100.00
29461;BME280;16428;47.836;35.106;2023-10-31T03:28:44;101673.78;;;11.38;100.00
29461;BME280;16428;47.836;35.106;2023-10-31T03:31:12;101672.47;;;11.42;100.00
29461;BME280;16428;47.836;35.106;2023-10-31T03:33:40;101678.66;;;11.16;100.00
29461;BME280;16428;47.836;35.106;2023-10-31T03:36:08;101672.16;;;11.45;100.00
29461;BME280;16428;47.836;35.106;2023-10-31T03:38:36;101684.91;;;11.43;100.00
29461;BME280;16428;47.836;35.106;2023-10-31T03:41:03;101686.09;;;11.22;100.00
29461;BME280;16428;47.836;35.106;2023-10-31T03:43:31;101676.56;;;11.28;100.00
29461;BME280;16428;47.836;35.106;2023-10-31T03:45:58;101679.84;;;11.40;100.00
29461;BME280;16428;47.836;35.106;2023-10-31T03:48:25;101683.81;;;11.61;100.00
29461;BME280;16428;47.836;35.106;2023-10-31T03:50:52;101681.13;;;11.27;100.00
29461;BME280;16428;47.836;35.106;2023-10-31T03:53:20;101675.19;;;11.50;100.00
29461;BME280;16428;47.836;35.106;2023-10-31T03:55:47;101660.00;;;11.41;100.00
29461;BME280;16428;47.836;35.106;2023-10-31T03:58:14;101666.06;;;11.43;100.00
29461;BME280;16428;47.836;35.106;2023-10-31T04:00:41;101670.38;;;11.36;100.00
29461;BME280;16428;47.836;35.106;2023-10-31T04:03:08;101673.00;;;11.45;100.00
29461;BME280;16428;47.836;35.106;2023-10-31T04:05:36;101665.63;;;11.55;100.00
29461;BME280;16428;47.836;35.106;2023-10-31T04:08:03;101663.78;;;11.56;100.00
29461;BME280;16428;47.836;35.106;2023-10-31T04:10:30;101669.47;;;11.45;100.00
29461;BME280;16428;47.836;35.106;2023-10-31T04:12:57;101670.84;;;11.57;100.00
29461;BME280;16428;47.836;35.106;2023-10-31T04:15:24;101669.34;;;11.62;100.00
29461;BME280;16428;47.836;35.106;2023-10-31T04:17:51;101667.47;;;11.55;100.00
29461;BME280;16428;47.836;35.106;2023-10-31T04:20:18;101680.09;;;11.54;100.00
29461;BME280;16428;47.836;35.106;2023-10-31T04:22:46;101679.88;;;11.48;100.00
29461;BME280;16428;47.836;35.106;2023-10-31T04:25:13;101689.00;;;11.55;100.00
29461;BME280;16428;47.836;35.106;2023-10-31T04:27:40;101682.66;;;11.64;100.00
29461;BME280;16428;47.836;35.106;2023-10-31T04:30:08;101691.44;;;11.40;100.00
29461;BME280;16428;47.836;35.106;2023-10-31T04:32:39;101680.03;;;11.46;100.00
29461;BME280;16428;47.836;35.106;2023-10-31T04:35:06;101680.41;;;11.51;100.00
29461;BME280;16428;47.836;35.106;2023-10-31T04:37:33;101683.22;;;11.42;100.00
29461;BME280;16428;47.836;35.106;2023-10-31T04:40:01;101686.16;;;11.56;100.00
29461;BME280;16428;47.836;35.106;2023-10-31T04:42:28;101683.94;;;11.52;100.00
29461;BME280;16428;47.836;35.106;2023-10-31T04:44:55;101696.28;;;11.37;100.00
29461;BME280;16428;47.836;35.106;2023-10-31T04:47:22;101677.94;;;11.58;100.00
29461;BME280;16428;47.836;35.106;2023-10-31T04:49:50;101688.34;;;11.61;100.00
29461;BME280;16428;47.836;35.106;2023-10-31T04:52:17;101689.53;;;11.58;100.00
29461;BME280;16428;47.836;35.106;2023-10-31T04:54:44;101689.31;;;11.52;100.00
29461;BME280;16428;47.836;35.106;2023-10-31T04:57:11;101690.47;;;11.49;100.00
29461;BME280;16428;47.836;35.106;2023-10-31T04:59:38;101698.50;;;11.67;100.00
29461;BME280;16428;47.836;35.106;2023-10-31T05:02:05;101694.75;;;11.60;100.00
29461;BME280;16428;47.836;35.106;2023-10-31T05:04:32;101697.13;;;11.63;100.00
29461;BME280;16428;47.836;35.106;2023-10-31T05:06:59;101702.22;;;11.40;100.00
29461;BME280;16428;47.836;35.106;2023-10-31T05:09:26;101697.94;;;11.55;100.00
29461;BME280;16428;47.836;35.106;2023-10-31T05:11:54;101699.78;;;11.55;100.00
29461;BME280;16428;47.836;35.106;2023-10-31T05:14:22;101710.09;;;11.68;100.00
29461;BME280;16428;47.836;35.106;2023-10-31T05:16:49;101711.56;;;11.62;100.00
29461;BME280;16428;47.836;35.106;2023-10-31T05:19:16;101707.56;;;11.66;100.00
29461;BME280;16428;47.836;35.106;2023-10-31T05:21:43;101703.78;;;11.51;100.00
29461;BME280;16428;47.836;35.106;2023-10-31T05:24:10;101711.22;;;11.57;100.00
29461;BME280;16428;47.836;35.106;2023-10-31T05:26:39;101717.91;;;11.53;100.00
29461;BME280;16428;47.836;35.106;2023-10-31T05:29:06;101723.00;;;11.56;100.00
29461;BME280;16428;47.836;35.106;2023-10-31T05:31:33;101725.88;;;11.62;100.00
29461;BME280;16428;47.836;35.106;2023-10-31T05:34:01;101718.56;;;11.73;100.00
29461;BME280;16428;47.836;35.106;2023-10-31T05:36:28;101723.66;;;11.76;100.00
29461;BME280;16428;47.836;35.106;2023-10-31T05:38:55;101715.06;;;11.80;100.00
29461;BME280;16428;47.836;35.106;2023-10-31T05:41:22;101719.41;;;11.73;100.00
29461;BME280;16428;47.836;35.106;2023-10-31T05:43:50;101722.00;;;11.83;100.00
29461;BME280;16428;47.836;35.106;2023-10-31T05:46:17;101721.84;;;11.84;100.00
29461;BME280;16428;47.836;35.106;2023-10-31T05:48:45;101725.41;;;11.93;100.00
29461;BME280;16428;47.836;35.106;2023-10-31T05:51:17;101727.28;;;12.01;100.00
29461;BME280;16428;47.836;35.106;2023-10-31T05:53:46;101724.91;;;11.89;100.00
29461;BME280;16428;47.836;35.106;2023-10-31T05:56:15;101733.66;;;11.91;100.00
29461;BME280;16428;47.836;35.106;2023-10-31T05:58:42;101726.06;;;11.87;100.00
29461;BME280;16428;47.836;35.106;2023-10-31T06:01:10;101724.06;;;11.89;100.00
29461;BME280;16428;47.836;35.106;2023-10-31T06:03:37;101728.50;;;12.06;100.00
29461;BME280;16428;47.836;35.106;2023-10-31T06:06:07;101724.06;;;11.97;100.00
29461;BME280;16428;47.836;35.106;2023-10-31T06:08:35;101734.69;;;11.98;100.00
29461;BME280;16428;47.836;35.106;2023-10-31T06:11:03;101732.38;;;12.12;100.00
29461;BME280;16428;47.836;35.106;2023-10-31T06:13:30;101733.13;;;12.30;100.00
29461;BME280;16428;47.836;35.106;2023-10-31T06:16:00;101733.78;;;12.24;100.00
29461;BME280;16428;47.836;35.106;2023-10-31T06:18:28;101731.53;;;12.03;100.00
29461;BME280;16428;47.836;35.106;2023-10-31T06:20:55;101733.38;;;12.11;100.00
29461;BME280;16428;47.836;35.106;2023-10-31T06:23:23;101732.38;;;12.04;100.00
29461;BME280;16428;47.836;35.106;2023-10-31T06:25:50;101734.47;;;12.26;100.00
29461;BME280;16428;47.836;35.106;2023-10-31T06:28:17;101731.69;;;12.10;100.00
29461;BME280;16428;47.836;35.106;2023-10-31T06:30:44;101737.75;;;12.04;100.00
29461;BME280;16428;47.836;35.106;2023-10-31T06:33:11;101735.06;;;12.04;100.00
29461;BME280;16428;47.836;35.106;2023-10-31T06:35:39;101730.06;;;12.25;100.00
29461;BME280;16428;47.836;35.106;2023-10-31T06:38:06;101728.63;;;12.47;100.00
29461;BME280;16428;47.836;35.106;2023-10-31T06:40:33;101734.78;;;12.23;100.00
29461;BME280;16428;47.836;35.106;2023-10-31T06:43:01;101733.13;;;12.38;100.00
29461;BME280;16428;47.836;35.106;2023-10-31T06:45:29;101737.53;;;12.39;100.00
29461;BME280;16428;47.836;35.106;2023-10-31T06:47:56;101732.81;;;12.33;100.00
29461;BME280;16428;47.836;35.106;2023-10-31T06:50:24;101730.22;;;12.15;100.00
29461;BME280;16428;47.836;35.106;2023-10-31T06:52:51;101727.25;;;12.35;100.00
29461;BME280;16428;47.836;35.106;2023-10-31T06:55:18;101728.97;;;12.44;100.00
29461;BME280;16428;47.836;35.106;2023-10-31T06:57:45;101728.69;;;12.63;100.00
29461;BME280;16428;47.836;35.106;2023-10-31T07:00:12;101728.00;;;12.69;100.00
29461;BME280;16428;47.836;35.106;2023-10-31T07:02:40;101739.63;;;12.69;100.00
29461;BME280;16428;47.836;35.106;2023-10-31T07:05:07;101738.94;;;12.59;100.00
29461;BME280;16428;47.836;35.106;2023-10-31T07:07:35;101738.78;;;12.61;100.00
29461;BME280;16428;47.836;35.106;2023-10-31T07:10:03;101730.88;;;12.67;100.00
29461;BME280;16428;47.836;35.106;2023-10-31T07:12:30;101730.88;;;12.76;100.00
29461;BME280;16428;47.836;35.106;2023-10-31T07:14:57;101724.66;;;12.91;100.00
29461;BME280;16428;47.836;35.106;2023-10-31T07:17:27;101732.41;;;13.02;100.00
29461;BME280;16428;47.836;35.106;2023-10-31T07:19:54;101737.16;;;13.17;100.00
29461;BME280;16428;47.836;35.106;2023-10-31T07:22:21;101730.22;;;13.06;100.00
29461;BME280;16428;47.836;35.106;2023-10-31T07:24:51;101725.50;;;13.08;100.00
29461;BME280;16428;47.836;35.106;2023-10-31T07:27:18;101716.25;;;13.11;100.00
29461;BME280;16428;47.836;35.106;2023-10-31T07:29:45;101721.50;;;13.28;100.00
29461;BME280;16428;47.836;35.106;2023-10-31T07:32:13;101726.53;;;13.40;100.00
29461;BME280;16428;47.836;35.106;2023-10-31T07:34:41;101723.16;;;13.29;100.00
29461;BME280;16428;47.836;35.106;2023-10-31T07:37:11;101724.38;;;13.27;100.00
29461;BME280;16428;47.836;35.106;2023-10-31T07:39:38;101722.34;;;13.21;100.00
29461;BME280;16428;47.836;35.106;2023-10-31T07:42:06;101727.56;;;13.22;100.00
29461;BME280;16428;47.836;35.106;2023-10-31T07:44:34;101720.63;;;13.36;100.00
29461;BME280;16428;47.836;35.106;2023-10-31T07:47:01;101728.56;;;13.37;100.00
29461;BME280;16428;47.836;35.106;2023-10-31T07:49:28;101732.09;;;13.30;100.00
29461;BME280;16428;47.836;35.106;2023-10-31T07:51:56;101739.66;;;13.67;100.00
29461;BME280;16428;47.836;35.106;2023-10-31T07:54:23;101729.56;;;13.53;100.00
29461;BME280;16428;47.836;35.106;2023-10-31T07:56:50;101733.91;;;13.70;100.00
29461;BME280;16428;47.836;35.106;2023-10-31T07:59:17;101737.63;;;13.61;100.00
29461;BME280;16428;47.836;35.106;2023-10-31T08:01:45;101730.69;;;13.75;100.00
29461;BME280;16428;47.836;35.106;2023-10-31T08:04:12;101723.72;;;13.80;100.00
29461;BME280;16428;47.836;35.106;2023-10-31T08:06:41;101722.50;;;13.99;100.00
29461;BME280;16428;47.836;35.106;2023-10-31T08:09:09;101720.75;;;13.67;100.00
29461;BME280;16428;47.836;35.106;2023-10-31T08:11:36;101719.69;;;13.84;100.00
29461;BME280;16428;47.836;35.106;2023-10-31T08:14:03;101736.25;;;13.73;100.00
29461;BME280;16428;47.836;35.106;2023-10-31T08:16:31;101724.53;;;13.97;100.00
29461;BME280;16428;47.836;35.106;2023-10-31T08:18:58;101729.34;;;14.18;100.00
29461;BME280;16428;47.836;35.106;2023-10-31T08:21:25;101726.84;;;14.08;100.00
29461;BME280;16428;47.836;35.106;2023-10-31T08:23:54;101719.63;;;14.00;100.00
29461;BME280;16428;47.836;35.106;2023-10-31T08:26:21;101727.25;;;14.28;100.00
29461;BME280;16428;47.836;35.106;2023-10-31T08:28:49;101728.56;;;14.40;100.00
29461;BME280;16428;47.836;35.106;2023-10-31T08:31:16;101721.50;;;14.31;100.00
29461;BME280;16428;47.836;35.106;2023-10-31T08:33:44;101729.91;;;14.44;100.00
29461;BME280;16428;47.836;35.106;2023-10-31T08:36:11;101716.41;;;14.44;100.00
29461;BME280;16428;47.836;35.106;2023-10-31T08:38:39;101722.72;;;14.59;100.00
29461;BME280;16428;47.836;35.106;2023-10-31T08:41:06;101717.63;;;14.87;100.00
29461;BME280;16428;47.836;35.106;2023-10-31T08:43:34;101712.72;;;15.43;100.00
29461;BME280;16428;47.836;35.106;2023-10-31T08:46:01;101716.06;;;15.68;100.00
29461;BME280;16428;47.836;35.106;2023-10-31T08:48:29;101714.00;;;15.99;100.00
29461;BME280;16428;47.836;35.106;2023-10-31T08:50:56;101719.88;;;16.17;100.00
29461;BME280;16428;47.836;35.106;2023-10-31T08:53:23;101720.53;;;16.56;100.00
29461;BME280;16428;47.836;35.106;2023-10-31T08:55:50;101718.84;;;16.91;100.00
29461;BME280;16428;47.836;35.106;2023-10-31T08:58:17;101720.66;;;17.05;100.00
29461;BME280;16428;47.836;35.106;2023-10-31T09:00:45;101715.03;;;17.06;100.00
29461;BME280;16428;47.836;35.106;2023-10-31T09:03:12;101713.72;;;17.51;100.00
29461;BME280;16428;47.836;35.106;2023-10-31T09:05:40;101714.13;;;17.76;100.00
29461;BME280;16428;47.836;35.106;2023-10-31T09:08:07;101702.56;;;18.09;100.00
29461;BME280;16428;47.836;35.106;2023-10-31T09:10:36;101704.16;;;18.31;100.00
29461;BME280;16428;47.836;35.106;2023-10-31T09:13:05;101697.03;;;18.30;100.00
29461;BME280;16428;47.836;35.106;2023-10-31T09:15:32;101700.63;;;18.50;100.00
29461;BME280;16428;47.836;35.106;2023-10-31T09:17:59;101695.50;;;18.88;100.00
29461;BME280;16428;47.836;35.106;2023-10-31T09:20:27;101687.66;;;18.46;100.00
29461;BME280;16428;47.836;35.106;2023-10-31T09:22:56;101687.34;;;18.88;100.00
29461;BME280;16428;47.836;35.106;2023-10-31T09:25:24;101685.66;;;19.33;100.00
29461;BME280;16428;47.836;35.106;2023-10-31T09:27:51;101685.22;;;19.63;100.00
29461;BME280;16428;47.836;35.106;2023-10-31T09:30:18;101676.44;;;19.35;100.00
29461;BME280;16428;47.836;35.106;2023-10-31T09:32:45;101679.34;;;19.59;100.00
29461;BME280;16428;47.836;35.106;2023-10-31T09:35:13;101672.91;;;20.12;100.00
29461;BME280;16428;47.836;35.106;2023-10-31T09:37:41;101668.22;;;20.25;100.00
29461;BME280;16428;47.836;35.106;2023-10-31T09:40:09;101668.22;;;20.25;100.00
29461;BME280;16428;47.836;35.106;2023-10-31T09:42:37;101662.91;;;20.44;100.00
29461;BME280;16428;47.836;35.106;2023-10-31T09:45:05;101664.53;;;20.83;100.00
29461;BME280;16428;47.836;35.106;2023-10-31T09:47:33;101657.25;;;21.01;100.00
29461;BME280;16428;47.836;35.106;2023-10-31T09:50:00;101656.25;;;21.21;100.00
29461;BME280;16428;47.836;35.106;2023-10-31T09:52:28;101648.47;;;21.18;100.00
29461;BME280;16428;47.836;35.106;2023-10-31T09:54:56;101649.84;;;21.33;100.00
29461;BME280;16428;47.836;35.106;2023-10-31T09:57:24;101639.28;;;21.55;100.00
29461;BME280;16428;47.836;35.106;2023-10-31T09:59:53;101646.09;;;21.28;99.73
29461;BME280;16428;47.836;35.106;2023-10-31T10:02:22;101641.56;;;21.76;98.76
29461;BME280;16428;47.836;35.106;2023-10-31T10:04:50;101643.69;;;21.74;96.97
29461;BME280;16428;47.836;35.106;2023-10-31T10:07:18;101641.25;;;21.30;99.13
29461;BME280;16428;47.836;35.106;2023-10-31T10:09:46;101634.88;;;21.54;100.00
29461;BME280;16428;47.836;35.106;2023-10-31T10:12:14;101629.84;;;22.24;92.98
29461;BME280;16428;47.836;35.106;2023-10-31T10:14:47;101630.97;;;22.17;94.93
29461;BME280;16428;47.836;35.106;2023-10-31T10:17:19;101615.34;;;22.05;92.04
29461;BME280;16428;47.836;35.106;2023-10-31T10:20:07;101620.00;;;22.35;92.90
29461;BME280;16428;47.836;35.106;2023-10-31T10:22:40;101622.09;;;22.63;90.61
29461;BME280;16428;47.836;35.106;2023-10-31T10:25:13;101617.34;;;22.70;90.73
29461;BME280;16428;47.836;35.106;2023-10-31T10:27:43;101615.03;;;23.08;85.36
29461;BME280;16428;47.836;35.106;2023-10-31T10:30:10;101612.06;;;23.22;84.76
29461;BME280;16428;47.836;35.106;2023-10-31T10:32:38;101615.84;;;23.44;81.68
29461;BME280;16428;47.836;35.106;2023-10-31T10:35:06;101605.41;;;23.18;82.81
29461;BME280;16428;47.836;35.106;2023-10-31T10:37:37;101610.97;;;23.46;81.16
29461;BME280;16428;47.836;35.106;2023-10-31T10:40:06;101615.28;;;23.65;76.91
29461;BME280;16428;47.836;35.106;2023-10-31T10:42:46;101605.63;;;23.28;78.48
29461;BME280;16428;47.836;35.106;2023-10-31T10:45:15;101606.34;;;23.11;83.00
29461;BME280;16428;47.836;35.106;2023-10-31T10:47:48;101605.59;;;23.39;81.09
29461;BME280;16428;47.836;35.106;2023-10-31T10:50:19;101604.78;;;23.15;83.34
29461;BME280;16428;47.836;35.106;2023-10-31T10:53:23;101598.47;;;23.62;78.80
29461;BME280;16428;47.836;35.106;2023-10-31T10:56:00;101606.91;;;23.60;80.36
29461;BME280;16428;47.836;35.106;2023-10-31T10:58:55;101600.41;;;23.90;77.19
29461;BME280;16428;47.836;35.106;2023-10-31T11:01:23;101603.31;;;23.71;78.58
29461;BME280;16428;47.836;35.106;2023-10-31T11:03:52;101595.19;;;23.76;77.21
29461;BME280;16428;47.836;35.106;2023-10-31T11:06:21;101602.38;;;23.54;76.36
29461;BME280;16428;47.836;35.106;2023-10-31T11:08:49;101593.03;;;23.78;75.21
29461;BME280;16428;47.836;35.106;2023-10-31T11:11:18;101599.16;;;23.57;74.73
29461;BME280;16428;47.836;35.106;2023-10-31T11:13:46;101590.22;;;23.50;75.54
29461;BME280;16428;47.836;35.106;2023-10-31T11:16:20;101587.25;;;23.63;76.29
29461;BME280;16428;47.836;35.106;2023-10-31T11:18:52;101584.69;;;23.73;76.18
29461;BME280;16428;47.836;35.106;2023-10-31T11:21:22;101584.78;;;23.90;75.53
29461;BME280;16428;47.836;35.106;2023-10-31T11:24:00;101575.81;;;23.95;76.04
29461;BME280;16428;47.836;35.106;2023-10-31T11:26:29;101574.97;;;23.94;74.63
29461;BME280;16428;47.836;35.106;2023-10-31T11:29:06;101563.94;;;23.77;75.90
29461;BME280;16428;47.836;35.106;2023-10-31T11:31:33;101562.63;;;23.68;75.97
29461;BME280;16428;47.836;35.106;2023-10-31T11:34:04;101553.03;;;23.54;78.12
29461;BME280;16428;47.836;35.106;2023-10-31T11:36:31;101552.47;;;23.29;80.04
29461;BME280;16428;47.836;35.106;2023-10-31T11:39:12;101549.25;;;23.32;80.22
29461;BME280;16428;47.836;35.106;2023-10-31T11:41:48;101548.97;;;23.45;78.23
29461;BME280;16428;47.836;35.106;2023-10-31T11:44:17;101551.84;;;23.50;76.47
29461;BME280;16428;47.836;35.106;2023-10-31T11:46:44;101549.03;;;23.73;76.67
29461;BME280;16428;47.836;35.106;2023-10-31T11:50:03;101541.81;;;23.67;76.06
29461;BME280;16428;47.836;35.106;2023-10-31T11:52:17;101532.53;;;23.45;78.16
29461;BME280;16428;47.836;35.106;2023-10-31T11:54:45;101537.94;;;23.68;77.15
29461;BME280;16428;47.836;35.106;2023-10-31T11:57:26;101527.09;;;23.22;78.58
29461;BME280;16428;47.836;35.106;2023-10-31T11:59:54;101516.88;;;23.05;80.00
29461;BME280;16428;47.836;35.106;2023-10-31T12:02:21;101518.50;;;23.30;78.12
29461;BME280;16428;47.836;35.106;2023-10-31T12:04:48;101516.91;;;23.45;77.61
29461;BME280;16428;47.836;35.106;2023-10-31T12:07:16;101511.34;;;23.69;77.76
29461;BME280;16428;47.836;35.106;2023-10-31T12:09:48;101506.28;;;23.49;78.54
29461;BME280;16428;47.836;35.106;2023-10-31T12:12:15;101508.88;;;23.67;78.25
29461;BME280;16428;47.836;35.106;2023-10-31T12:14:42;101505.69;;;23.47;79.27
29461;BME280;16428;47.836;35.106;2023-10-31T12:17:09;101499.75;;;23.78;76.58
29461;BME280;16428;47.836;35.106;2023-10-31T12:19:37;101498.56;;;24.19;72.31
29461;BME280;16428;47.836;35.106;2023-10-31T12:22:13;101494.78;;;24.54;68.01
29461;BME280;16428;47.836;35.106;2023-10-31T12:24:40;101484.53;;;24.66;66.30
29461;BME280;16428;47.836;35.106;2023-10-31T12:27:07;101488.03;;;24.62;66.90
29461;BME280;16428;47.836;35.106;2023-10-31T12:29:36;101478.22;;;24.32;69.82
29461;BME280;16428;47.836;35.106;2023-10-31T12:32:03;101484.75;;;24.43;68.80
29461;BME280;16428;47.836;35.106;2023-10-31T12:34:30;101479.25;;;24.43;69.06
29461;BME280;16428;47.836;35.106;2023-10-31T12:37:01;101479.50;;;24.41;69.59
29461;BME280;16428;47.836;35.106;2023-10-31T12:39:30;101474.09;;;25.02;65.11